sensor_id;sensor_type;location;lat;lon;timestamp;temperature;humidity
3262;DHT22;1643;47.746;9.000;2022-09-09T00:04:32;16.80;99.90
3262;DHT22;1643;47.746;9.000;2022-09-09T00:07:03;16.80;99.90
3262;DHT22;1643;47.746;9.000;2022-09-09T00:10:03;16.70;99.90
3262;DHT22;1643;47.746;9.000;2022-09-09T00:15:19;16.70;99.90
3262;DHT22;1643;47.746;9.000;2022-09-09T00:18:01;16.60;99.90
3262;DHT22;1643;47.746;9.000;2022-09-09T00:20:40;16.70;99.90
3262;DHT22;1643;47.746;9.000;2022-09-09T00:25:49;16.50;99.90
3262;DHT22;1643;47.746;9.000;2022-09-09T00:28:25;16.50;99.90
3262;DHT22;1643;47.746;9.000;2022-09-09T00:30:51;16.40;99.90
3262;DHT22;1643;47.746;9.000;2022-09-09T00:33:20;16.50;99.90
3262;DHT22;1643;47.746;9.000;2022-09-09T00:35:54;16.50;99.90
3262;DHT22;1643;47.746;9.000;2022-09-09T00:40:58;16.50;99.90
3262;DHT22;1643;47.746;9.000;2022-09-09T00:43:30;16.40;99.90
3262;DHT22;1643;47.746;9.000;2022-09-09T00:46:21;16.40;99.90
3262;DHT22;1643;47.746;9.000;2022-09-09T00:51:47;16.20;99.90
3262;DHT22;1643;47.746;9.000;2022-09-09T00:54:45;16.20;99.90
3262;DHT22;1643;47.746;9.000;2022-09-09T00:57:37;16.30;99.90
3262;DHT22;1643;47.746;9.000;2022-09-09T01:06:01;16.20;99.90
3262;DHT22;1643;47.746;9.000;2022-09-09T01:08:54;16.20;99.90
3262;DHT22;1643;47.746;9.000;2022-09-09T01:11:27;16.30;99.90
3262;DHT22;1643;47.746;9.000;2022-09-09T01:17:05;16.40;99.90
3262;DHT22;1643;47.746;9.000;2022-09-09T01:25:13;16.50;99.90
3262;DHT22;1643;47.746;9.000;2022-09-09T01:27:43;16.40;99.90
3262;DHT22;1643;47.746;9.000;2022-09-09T01:30:16;16.40;99.90
3262;DHT22;1643;47.746;9.000;2022-09-09T01:32:45;16.40;99.90
3262;DHT22;1643;47.746;9.000;2022-09-09T01:37:55;16.40;99.90
3262;DHT22;1643;47.746;9.000;2022-09-09T01:40:21;16.40;99.90
3262;DHT22;1643;47.746;9.000;2022-09-09T01:42:47;16.40;99.90
3262;DHT22;1643;47.746;9.000;2022-09-09T01:45:12;16.40;99.90
3262;DHT22;1643;47.746;9.000;2022-09-09T01:47:38;16.30;99.90
3262;DHT22;1643;47.746;9.000;2022-09-09T01:50:04;16.30;99.90
3262;DHT22;1643;47.746;9.000;2022-09-09T01:52:39;16.40;99.90
3262;DHT22;1643;47.746;9.000;2022-09-09T01:55:05;16.40;99.90
3262;DHT22;1643;47.746;9.000;2022-09-09T01:57:39;16.40;99.90
3262;DHT22;1643;47.746;9.000;2022-09-09T02:00:12;16.20;99.90
3262;DHT22;1643;47.746;9.000;2022-09-09T02:03:07;16.10;99.90
3262;DHT22;1643;47.746;9.000;2022-09-09T02:05:42;16.00;99.90
3262;DHT22;1643;47.746;9.000;2022-09-09T02:08:19;16.10;99.90
3262;DHT22;1643;47.746;9.000;2022-09-09T02:13:28;16.10;99.90
3262;DHT22;1643;47.746;9.000;2022-09-09T02:19:00;16.20;99.90
3262;DHT22;1643;47.746;9.000;2022-09-09T02:21:28;16.20;99.90
3262;DHT22;1643;47.746;9.000;2022-09-09T02:23:55;16.20;99.90
3262;DHT22;1643;47.746;9.000;2022-09-09T02:26:23;16.00;99.90
3262;DHT22;1643;47.746;9.000;2022-09-09T02:28:51;15.80;99.90
3262;DHT22;1643;47.746;9.000;2022-09-09T02:31:20;15.90;99.90
3262;DHT22;1643;47.746;9.000;2022-09-09T02:33:52;15.90;99.90
3262;DHT22;1643;47.746;9.000;2022-09-09T02:36:22;16.00;99.90
3262;DHT22;1643;47.746;9.000;2022-09-09T02:38:49;16.10;99.90
3262;DHT22;1643;47.746;9.000;2022-09-09T02:41:24;16.10;99.90
3262;DHT22;1643;47.746;9.000;2022-09-09T02:43:51;16.00;99.90
3262;DHT22;1643;47.746;9.000;2022-09-09T02:49:06;16.10;99.90
3262;DHT22;1643;47.746;9.000;2022-09-09T02:51:45;16.20;99.90
3262;DHT22;1643;47.746;9.000;2022-09-09T02:54:18;16.10;99.90
3262;DHT22;1643;47.746;9.000;2022-09-09T02:56:53;16.10;99.90
3262;DHT22;1643;47.746;9.000;2022-09-09T02:59:20;16.20;99.90
3262;DHT22;1643;47.746;9.000;2022-09-09T03:01:46;16.20;99.90
3262;DHT22;1643;47.746;9.000;2022-09-09T03:04:12;16.20;99.90
3262;DHT22;1643;47.746;9.000;2022-09-09T03:06:38;16.20;99.90
3262;DHT22;1643;47.746;9.000;2022-09-09T03:09:04;16.20;99.90
3262;DHT22;1643;47.746;9.000;2022-09-09T03:11:29;16.10;99.90
3262;DHT22;1643;47.746;9.000;2022-09-09T03:13:55;16.00;99.90
3262;DHT22;1643;47.746;9.000;2022-09-09T03:16:24;16.00;99.90
3262;DHT22;1643;47.746;9.000;2022-09-09T03:18:49;16.10;99.90
3262;DHT22;1643;47.746;9.000;2022-09-09T03:21:15;16.60;99.90
3262;DHT22;1643;47.746;9.000;2022-09-09T03:23:41;16.90;99.90
3262;DHT22;1643;47.746;9.000;2022-09-09T03:26:07;16.70;99.90
3262;DHT22;1643;47.746;9.000;2022-09-09T03:28:33;16.50;99.90
3262;DHT22;1643;47.746;9.000;2022-09-09T03:31:05;16.40;99.90
3262;DHT22;1643;47.746;9.000;2022-09-09T03:33:31;16.40;99.90
3262;DHT22;1643;47.746;9.000;2022-09-09T03:35:57;16.40;99.90
3262;DHT22;1643;47.746;9.000;2022-09-09T03:38:24;16.80;99.90
3262;DHT22;1643;47.746;9.000;2022-09-09T03:40:55;17.10;99.90
3262;DHT22;1643;47.746;9.000;2022-09-09T03:43:23;17.20;99.90
3262;DHT22;1643;47.746;9.000;2022-09-09T03:45:49;17.30;99.90
3262;DHT22;1643;47.746;9.000;2022-09-09T03:48:16;17.30;99.90
3262;DHT22;1643;47.746;9.000;2022-09-09T03:50:46;17.40;99.90
3262;DHT22;1643;47.746;9.000;2022-09-09T03:53:12;17.40;99.90
3262;DHT22;1643;47.746;9.000;2022-09-09T03:55:37;17.50;99.90
3262;DHT22;1643;47.746;9.000;2022-09-09T03:58:03;17.50;99.90
3262;DHT22;1643;47.746;9.000;2022-09-09T04:00:29;17.50;99.90
3262;DHT22;1643;47.746;9.000;2022-09-09T04:02:55;17.60;99.90
3262;DHT22;1643;47.746;9.000;2022-09-09T04:05:23;17.60;99.90
3262;DHT22;1643;47.746;9.000;2022-09-09T04:07:48;17.60;99.90
3262;DHT22;1643;47.746;9.000;2022-09-09T04:10:14;17.60;99.90
3262;DHT22;1643;47.746;9.000;2022-09-09T04:12:41;17.60;99.90
3262;DHT22;1643;47.746;9.000;2022-09-09T04:15:06;17.60;99.90
3262;DHT22;1643;47.746;9.000;2022-09-09T04:17:32;17.20;99.90
3262;DHT22;1643;47.746;9.000;2022-09-09T04:19:58;16.90;99.90
3262;DHT22;1643;47.746;9.000;2022-09-09T04:22:24;16.70;99.90
3262;DHT22;1643;47.746;9.000;2022-09-09T04:24:49;16.70;99.90
3262;DHT22;1643;47.746;9.000;2022-09-09T04:27:15;16.60;99.90
3262;DHT22;1643;47.746;9.000;2022-09-09T04:29:40;16.50;99.90
3262;DHT22;1643;47.746;9.000;2022-09-09T04:32:06;16.50;99.90
3262;DHT22;1643;47.746;9.000;2022-09-09T04:34:31;16.50;99.90
3262;DHT22;1643;47.746;9.000;2022-09-09T04:36:58;16.50;99.90
3262;DHT22;1643;47.746;9.000;2022-09-09T04:39:25;16.50;99.90
3262;DHT22;1643;47.746;9.000;2022-09-09T04:41:51;16.50;99.90
3262;DHT22;1643;47.746;9.000;2022-09-09T04:44:17;16.60;99.90
3262;DHT22;1643;47.746;9.000;2022-09-09T04:46:42;16.50;99.90
3262;DHT22;1643;47.746;9.000;2022-09-09T04:49:08;16.50;99.90
3262;DHT22;1643;47.746;9.000;2022-09-09T04:51:33;16.60;99.90
3262;DHT22;1643;47.746;9.000;2022-09-09T04:53:59;16.50;99.90
3262;DHT22;1643;47.746;9.000;2022-09-09T04:56:25;16.50;99.90
3262;DHT22;1643;47.746;9.000;2022-09-09T04:58:53;16.50;99.90
3262;DHT22;1643;47.746;9.000;2022-09-09T05:01:21;16.50;99.90
3262;DHT22;1643;47.746;9.000;2022-09-09T05:03:47;16.50;99.90
3262;DHT22;1643;47.746;9.000;2022-09-09T05:06:14;16.50;99.90
3262;DHT22;1643;47.746;9.000;2022-09-09T05:08:42;16.50;99.90
3262;DHT22;1643;47.746;9.000;2022-09-09T05:11:28;16.50;99.90
3262;DHT22;1643;47.746;9.000;2022-09-09T05:13:54;16.50;99.90
3262;DHT22;1643;47.746;9.000;2022-09-09T05:16:20;16.50;99.90
3262;DHT22;1643;47.746;9.000;2022-09-09T05:18:46;16.50;99.90
3262;DHT22;1643;47.746;9.000;2022-09-09T05:21:13;16.50;99.90
3262;DHT22;1643;47.746;9.000;2022-09-09T05:23:40;16.50;99.90
3262;DHT22;1643;47.746;9.000;2022-09-09T05:26:06;16.50;99.90
3262;DHT22;1643;47.746;9.000;2022-09-09T05:28:34;16.50;99.90
3262;DHT22;1643;47.746;9.000;2022-09-09T05:31:06;16.40;99.90
3262;DHT22;1643;47.746;9.000;2022-09-09T05:33:34;16.40;99.90
3262;DHT22;1643;47.746;9.000;2022-09-09T05:36:05;16.50;99.90
3262;DHT22;1643;47.746;9.000;2022-09-09T05:38:33;16.40;99.90
3262;DHT22;1643;47.746;9.000;2022-09-09T05:40:59;16.50;99.90
3262;DHT22;1643;47.746;9.000;2022-09-09T05:43:26;16.50;99.90
3262;DHT22;1643;47.746;9.000;2022-09-09T05:48:51;16.40;99.90
3262;DHT22;1643;47.746;9.000;2022-09-09T05:51:22;16.40;99.90
3262;DHT22;1643;47.746;9.000;2022-09-09T05:53:49;16.40;99.90
3262;DHT22;1643;47.746;9.000;2022-09-09T05:56:21;16.40;99.90
3262;DHT22;1643;47.746;9.000;2022-09-09T05:58:51;16.40;99.90
3262;DHT22;1643;47.746;9.000;2022-09-09T06:01:30;16.40;99.90
3262;DHT22;1643;47.746;9.000;2022-09-09T06:03:57;16.50;99.90
3262;DHT22;1643;47.746;9.000;2022-09-09T06:06:25;16.50;99.90
3262;DHT22;1643;47.746;9.000;2022-09-09T06:08:55;16.50;99.90
3262;DHT22;1643;47.746;9.000;2022-09-09T06:11:29;16.50;99.90
3262;DHT22;1643;47.746;9.000;2022-09-09T06:13:59;16.50;99.90
3262;DHT22;1643;47.746;9.000;2022-09-09T06:16:26;16.50;99.90
3262;DHT22;1643;47.746;9.000;2022-09-09T06:18:53;16.60;99.90
3262;DHT22;1643;47.746;9.000;2022-09-09T06:21:31;16.60;99.90
3262;DHT22;1643;47.746;9.000;2022-09-09T06:23:58;16.60;99.90
3262;DHT22;1643;47.746;9.000;2022-09-09T06:26:25;16.60;99.90
3262;DHT22;1643;47.746;9.000;2022-09-09T06:28:53;16.60;99.90
3262;DHT22;1643;47.746;9.000;2022-09-09T06:31:23;16.60;99.90
3262;DHT22;1643;47.746;9.000;2022-09-09T06:33:51;16.60;99.90
3262;DHT22;1643;47.746;9.000;2022-09-09T06:36:22;16.60;99.90
3262;DHT22;1643;47.746;9.000;2022-09-09T06:38:48;16.70;99.90
3262;DHT22;1643;47.746;9.000;2022-09-09T06:41:16;16.70;99.90
3262;DHT22;1643;47.746;9.000;2022-09-09T06:43:42;16.80;99.90
3262;DHT22;1643;47.746;9.000;2022-09-09T06:46:19;16.80;99.90
3262;DHT22;1643;47.746;9.000;2022-09-09T06:48:46;16.80;99.90
3262;DHT22;1643;47.746;9.000;2022-09-09T06:51:14;16.80;99.90
3262;DHT22;1643;47.746;9.000;2022-09-09T06:53:42;16.80;99.90
3262;DHT22;1643;47.746;9.000;2022-09-09T06:58:43;16.80;99.90
3262;DHT22;1643;47.746;9.000;2022-09-09T07:01:14;16.90;99.90
3262;DHT22;1643;47.746;9.000;2022-09-09T07:03:40;16.90;99.90
3262;DHT22;1643;47.746;9.000;2022-09-09T07:06:09;16.90;99.90
3262;DHT22;1643;47.746;9.000;2022-09-09T07:08:39;17.00;99.90
3262;DHT22;1643;47.746;9.000;2022-09-09T07:11:07;17.00;99.90
3262;DHT22;1643;47.746;9.000;2022-09-09T07:13:34;17.10;99.90
3262;DHT22;1643;47.746;9.000;2022-09-09T07:16:09;17.10;99.90
3262;DHT22;1643;47.746;9.000;2022-09-09T07:18:36;17.10;99.90
3262;DHT22;1643;47.746;9.000;2022-09-09T07:21:03;17.20;99.90
3262;DHT22;1643;47.746;9.000;2022-09-09T07:23:29;17.20;99.90
3262;DHT22;1643;47.746;9.000;2022-09-09T07:25:58;17.40;99.90
3262;DHT22;1643;47.746;9.000;2022-09-09T07:28:25;17.40;99.90
3262;DHT22;1643;47.746;9.000;2022-09-09T07:30:59;17.40;99.90
3262;DHT22;1643;47.746;9.000;2022-09-09T07:33:27;17.60;99.90
3262;DHT22;1643;47.746;9.000;2022-09-09T07:36:03;17.70;99.90
3262;DHT22;1643;47.746;9.000;2022-09-09T07:38:29;17.70;99.90
3262;DHT22;1643;47.746;9.000;2022-09-09T07:41:06;17.70;99.90
3262;DHT22;1643;47.746;9.000;2022-09-09T07:43:32;17.70;99.90
3262;DHT22;1643;47.746;9.000;2022-09-09T07:45:59;17.80;99.90
3262;DHT22;1643;47.746;9.000;2022-09-09T07:48:27;17.90;99.90
3262;DHT22;1643;47.746;9.000;2022-09-09T07:50:52;18.00;99.90
3262;DHT22;1643;47.746;9.000;2022-09-09T07:53:19;18.00;99.90
3262;DHT22;1643;47.746;9.000;2022-09-09T07:55:45;18.10;99.90
3262;DHT22;1643;47.746;9.000;2022-09-09T07:58:11;18.30;99.90
3262;DHT22;1643;47.746;9.000;2022-09-09T08:00:36;18.30;99.90
3262;DHT22;1643;47.746;9.000;2022-09-09T08:03:02;18.50;99.90
3262;DHT22;1643;47.746;9.000;2022-09-09T08:05:28;18.50;99.90
3262;DHT22;1643;47.746;9.000;2022-09-09T08:07:54;18.50;99.90
3262;DHT22;1643;47.746;9.000;2022-09-09T08:10:20;18.60;99.90
3262;DHT22;1643;47.746;9.000;2022-09-09T08:12:45;18.70;99.90
3262;DHT22;1643;47.746;9.000;2022-09-09T08:15:12;18.70;99.90
3262;DHT22;1643;47.746;9.000;2022-09-09T08:17:38;18.60;99.90
3262;DHT22;1643;47.746;9.000;2022-09-09T08:20:04;18.60;99.90
3262;DHT22;1643;47.746;9.000;2022-09-09T08:22:30;18.50;99.90
3262;DHT22;1643;47.746;9.000;2022-09-09T08:24:56;18.50;99.90
3262;DHT22;1643;47.746;9.000;2022-09-09T08:27:22;18.60;99.90
3262;DHT22;1643;47.746;9.000;2022-09-09T08:29:48;18.80;99.90
3262;DHT22;1643;47.746;9.000;2022-09-09T08:32:14;19.00;99.90
3262;DHT22;1643;47.746;9.000;2022-09-09T08:34:39;19.00;99.90
3262;DHT22;1643;47.746;9.000;2022-09-09T08:37:06;18.90;99.90
3262;DHT22;1643;47.746;9.000;2022-09-09T08:39:32;18.90;99.90
3262;DHT22;1643;47.746;9.000;2022-09-09T08:50:35;18.80;99.90
3262;DHT22;1643;47.746;9.000;2022-09-09T08:53:02;18.90;99.90
3262;DHT22;1643;47.746;9.000;2022-09-09T09:04:11;19.00;99.90
3262;DHT22;1643;47.746;9.000;2022-09-09T09:07:08;18.90;99.90
3262;DHT22;1643;47.746;9.000;2022-09-09T09:12:20;18.80;99.90
3262;DHT22;1643;47.746;9.000;2022-09-09T09:14:47;18.80;99.90
3262;DHT22;1643;47.746;9.000;2022-09-09T09:19:41;19.30;99.90
3262;DHT22;1643;47.746;9.000;2022-09-09T09:22:30;19.50;99.90
3262;DHT22;1643;47.746;9.000;2022-09-09T09:25:22;19.80;99.90
3262;DHT22;1643;47.746;9.000;2022-09-09T09:30:34;19.60;99.90
3262;DHT22;1643;47.746;9.000;2022-09-09T09:33:05;19.40;99.90
3262;DHT22;1643;47.746;9.000;2022-09-09T09:35:32;19.30;99.90
3262;DHT22;1643;47.746;9.000;2022-09-09T09:37:57;19.10;99.90
3262;DHT22;1643;47.746;9.000;2022-09-09T09:40:26;19.00;99.90
3262;DHT22;1643;47.746;9.000;2022-09-09T09:42:58;19.00;99.90
3262;DHT22;1643;47.746;9.000;2022-09-09T09:48:02;19.50;99.90
3262;DHT22;1643;47.746;9.000;2022-09-09T09:50:29;19.70;99.90
3262;DHT22;1643;47.746;9.000;2022-09-09T09:53:02;19.80;99.90
3262;DHT22;1643;47.746;9.000;2022-09-09T09:55:30;19.90;99.90
3262;DHT22;1643;47.746;9.000;2022-09-09T09:58:05;19.90;99.90
3262;DHT22;1643;47.746;9.000;2022-09-09T10:00:32;20.00;99.90
3262;DHT22;1643;47.746;9.000;2022-09-09T10:03:00;20.00;99.90
3262;DHT22;1643;47.746;9.000;2022-09-09T10:05:29;20.20;99.90
3262;DHT22;1643;47.746;9.000;2022-09-09T10:08:12;20.20;99.90
3262;DHT22;1643;47.746;9.000;2022-09-09T10:19:30;20.30;99.90
3262;DHT22;1643;47.746;9.000;2022-09-09T10:22:26;20.30;99.90
3262;DHT22;1643;47.746;9.000;2022-09-09T10:36:31;19.70;99.90
3262;DHT22;1643;47.746;9.000;2022-09-09T10:44:36;20.00;99.90
3262;DHT22;1643;47.746;9.000;2022-09-09T10:55:16;19.80;99.90
3262;DHT22;1643;47.746;9.000;2022-09-09T10:57:49;19.60;99.90
3262;DHT22;1643;47.746;9.000;2022-09-09T11:00:22;19.60;99.90
3262;DHT22;1643;47.746;9.000;2022-09-09T11:02:55;19.50;99.90
3262;DHT22;1643;47.746;9.000;2022-09-09T11:05:29;19.50;99.90
3262;DHT22;1643;47.746;9.000;2022-09-09T11:08:29;19.50;99.90
3262;DHT22;1643;47.746;9.000;2022-09-09T11:13:39;19.50;99.90
3262;DHT22;1643;47.746;9.000;2022-09-09T11:18:44;19.40;99.90
3262;DHT22;1643;47.746;9.000;2022-09-09T11:21:33;19.50;99.90
3262;DHT22;1643;47.746;9.000;2022-09-09T11:25:25;19.50;99.90
3262;DHT22;1643;47.746;9.000;2022-09-09T11:36:12;20.30;99.90
3262;DHT22;1643;47.746;9.000;2022-09-09T11:38:45;20.60;99.90
3262;DHT22;1643;47.746;9.000;2022-09-09T11:41:16;20.80;99.90
3262;DHT22;1643;47.746;9.000;2022-09-09T11:43:53;21.00;99.90
3262;DHT22;1643;47.746;9.000;2022-09-09T11:46:32;21.10;99.90
3262;DHT22;1643;47.746;9.000;2022-09-09T11:49:05;21.10;99.90
3262;DHT22;1643;47.746;9.000;2022-09-09T11:51:33;21.20;99.90
3262;DHT22;1643;47.746;9.000;2022-09-09T11:54:21;21.20;99.90
3262;DHT22;1643;47.746;9.000;2022-09-09T11:56:45;21.30;99.90
3262;DHT22;1643;47.746;9.000;2022-09-09T11:59:23;21.40;99.90
3262;DHT22;1643;47.746;9.000;2022-09-09T12:04:32;21.60;99.90
3262;DHT22;1643;47.746;9.000;2022-09-09T12:10:03;21.80;99.90
3262;DHT22;1643;47.746;9.000;2022-09-09T12:12:38;21.80;99.90
3262;DHT22;1643;47.746;9.000;2022-09-09T12:17:41;21.80;99.90
3262;DHT22;1643;47.746;9.000;2022-09-09T12:20:18;21.90;99.90
3262;DHT22;1643;47.746;9.000;2022-09-09T12:28:49;22.10;99.90
3262;DHT22;1643;47.746;9.000;2022-09-09T12:31:23;22.10;99.90
3262;DHT22;1643;47.746;9.000;2022-09-09T12:33:50;22.20;99.90
3262;DHT22;1643;47.746;9.000;2022-09-09T12:36:30;22.20;99.90
3262;DHT22;1643;47.746;9.000;2022-09-09T12:39:08;22.30;99.90
3262;DHT22;1643;47.746;9.000;2022-09-09T12:41:36;22.30;99.90
3262;DHT22;1643;47.746;9.000;2022-09-09T12:44:06;22.30;99.90
3262;DHT22;1643;47.746;9.000;2022-09-09T12:46:38;22.40;99.90
3262;DHT22;1643;47.746;9.000;2022-09-09T12:49:18;22.50;99.90
3262;DHT22;1643;47.746;9.000;2022-09-09T12:51:49;22.60;99.90
3262;DHT22;1643;47.746;9.000;2022-09-09T12:54:15;22.50;99.90
3262;DHT22;1643;47.746;9.000;2022-09-09T12:56:46;22.50;99.90
3262;DHT22;1643;47.746;9.000;2022-09-09T12:59:36;22.70;99.90
3262;DHT22;1643;47.746;9.000;2022-09-09T13:02:02;22.70;99.90
3262;DHT22;1643;47.746;9.000;2022-09-09T13:04:27;22.60;99.90
3262;DHT22;1643;47.746;9.000;2022-09-09T13:06:53;22.70;99.90
3262;DHT22;1643;47.746;9.000;2022-09-09T13:09:19;22.80;99.90
3262;DHT22;1643;47.746;9.000;2022-09-09T13:11:55;22.80;99.90
3262;DHT22;1643;47.746;9.000;2022-09-09T13:14:33;22.90;99.20
3262;DHT22;1643;47.746;9.000;2022-09-09T13:17:02;22.90;99.70
3262;DHT22;1643;47.746;9.000;2022-09-09T13:19:32;22.90;99.90
3262;DHT22;1643;47.746;9.000;2022-09-09T13:22:00;23.00;99.90
3262;DHT22;1643;47.746;9.000;2022-09-09T13:24:37;23.00;99.60
3262;DHT22;1643;47.746;9.000;2022-09-09T13:27:19;23.00;99.10
3262;DHT22;1643;47.746;9.000;2022-09-09T13:29:51;23.10;99.10
3262;DHT22;1643;47.746;9.000;2022-09-09T13:32:22;23.10;98.80
3262;DHT22;1643;47.746;9.000;2022-09-09T13:34:56;23.20;99.30
3262;DHT22;1643;47.746;9.000;2022-09-09T13:37:37;23.10;99.40
3262;DHT22;1643;47.746;9.000;2022-09-09T13:40:05;23.10;99.60
3262;DHT22;1643;47.746;9.000;2022-09-09T13:42:34;23.10;99.50
3262;DHT22;1643;47.746;9.000;2022-09-09T13:45:02;23.10;99.60
3262;DHT22;1643;47.746;9.000;2022-09-09T13:47:35;23.20;99.50
3262;DHT22;1643;47.746;9.000;2022-09-09T13:50:30;22.90;98.90
3262;DHT22;1643;47.746;9.000;2022-09-09T13:52:57;22.60;99.00
3262;DHT22;1643;47.746;9.000;2022-09-09T13:55:25;22.40;99.20
3262;DHT22;1643;47.746;9.000;2022-09-09T13:58:02;22.30;99.40
3262;DHT22;1643;47.746;9.000;2022-09-09T14:00:33;22.20;99.50
3262;DHT22;1643;47.746;9.000;2022-09-09T14:02:59;22.20;99.40
3262;DHT22;1643;47.746;9.000;2022-09-09T14:05:30;22.50;99.90
3262;DHT22;1643;47.746;9.000;2022-09-09T14:07:57;22.80;99.80
3262;DHT22;1643;47.746;9.000;2022-09-09T14:10:23;23.10;99.90
3262;DHT22;1643;47.746;9.000;2022-09-09T14:12:49;23.40;99.80
3262;DHT22;1643;47.746;9.000;2022-09-09T14:15:14;23.50;98.80
3262;DHT22;1643;47.746;9.000;2022-09-09T14:17:40;23.50;98.30
3262;DHT22;1643;47.746;9.000;2022-09-09T14:20:07;23.60;97.70
3262;DHT22;1643;47.746;9.000;2022-09-09T14:22:35;23.60;97.40
3262;DHT22;1643;47.746;9.000;2022-09-09T14:25:01;23.70;97.60
3262;DHT22;1643;47.746;9.000;2022-09-09T14:27:27;23.60;97.80
3262;DHT22;1643;47.746;9.000;2022-09-09T14:29:52;23.30;98.30
3262;DHT22;1643;47.746;9.000;2022-09-09T14:32:18;23.30;98.40
3262;DHT22;1643;47.746;9.000;2022-09-09T14:34:44;23.10;98.40
3262;DHT22;1643;47.746;9.000;2022-09-09T14:37:10;23.10;97.90
3262;DHT22;1643;47.746;9.000;2022-09-09T14:39:36;23.10;97.60
3262;DHT22;1643;47.746;9.000;2022-09-09T14:42:02;23.00;97.60
3262;DHT22;1643;47.746;9.000;2022-09-09T14:44:28;22.80;97.60
3262;DHT22;1643;47.746;9.000;2022-09-09T14:46:54;22.80;98.00
3262;DHT22;1643;47.746;9.000;2022-09-09T14:49:20;22.60;98.20
3262;DHT22;1643;47.746;9.000;2022-09-09T14:51:46;22.50;97.00
3262;DHT22;1643;47.746;9.000;2022-09-09T14:54:11;22.70;95.80
3262;DHT22;1643;47.746;9.000;2022-09-09T14:56:37;23.00;96.20
3262;DHT22;1643;47.746;9.000;2022-09-09T14:59:03;23.30;96.00
3262;DHT22;1643;47.746;9.000;2022-09-09T15:01:30;23.40;96.00
3262;DHT22;1643;47.746;9.000;2022-09-09T15:04:02;23.60;96.30
3262;DHT22;1643;47.746;9.000;2022-09-09T15:06:30;23.90;95.60
3262;DHT22;1643;47.746;9.000;2022-09-09T15:08:57;23.90;96.10
3262;DHT22;1643;47.746;9.000;2022-09-09T15:11:23;24.00;96.40
3262;DHT22;1643;47.746;9.000;2022-09-09T15:13:51;24.20;96.50
3262;DHT22;1643;47.746;9.000;2022-09-09T15:16:19;24.40;96.20
3262;DHT22;1643;47.746;9.000;2022-09-09T15:18:45;24.40;95.70
3262;DHT22;1643;47.746;9.000;2022-09-09T15:21:16;24.60;95.50
3262;DHT22;1643;47.746;9.000;2022-09-09T15:23:44;24.70;95.40
3262;DHT22;1643;47.746;9.000;2022-09-09T15:26:11;24.90;95.10
3262;DHT22;1643;47.746;9.000;2022-09-09T15:28:39;25.00;94.70
3262;DHT22;1643;47.746;9.000;2022-09-09T15:31:08;25.10;94.20
3262;DHT22;1643;47.746;9.000;2022-09-09T15:33:34;25.20;94.10
3262;DHT22;1643;47.746;9.000;2022-09-09T15:36:20;25.30;94.00
3262;DHT22;1643;47.746;9.000;2022-09-09T15:38:47;25.30;93.30
3262;DHT22;1643;47.746;9.000;2022-09-09T15:41:14;25.00;90.40
3262;DHT22;1643;47.746;9.000;2022-09-09T15:43:43;24.40;91.30
3262;DHT22;1643;47.746;9.000;2022-09-09T15:46:32;24.20;90.60
3262;DHT22;1643;47.746;9.000;2022-09-09T15:49:04;24.10;90.50
3262;DHT22;1643;47.746;9.000;2022-09-09T15:51:30;24.00;90.10
3262;DHT22;1643;47.746;9.000;2022-09-09T15:53:57;24.00;91.10
3262;DHT22;1643;47.746;9.000;2022-09-09T15:56:24;24.00;90.70
3262;DHT22;1643;47.746;9.000;2022-09-09T15:58:50;24.00;90.70
3262;DHT22;1643;47.746;9.000;2022-09-09T16:01:18;24.00;91.00
3262;DHT22;1643;47.746;9.000;2022-09-09T16:03:45;23.90;90.80
3262;DHT22;1643;47.746;9.000;2022-09-09T16:06:20;23.90;91.20
3262;DHT22;1643;47.746;9.000;2022-09-09T16:08:49;23.90;90.70
3262;DHT22;1643;47.746;9.000;2022-09-09T16:11:32;23.80;91.00
3262;DHT22;1643;47.746;9.000;2022-09-09T16:13:59;23.80;90.60
3262;DHT22;1643;47.746;9.000;2022-09-09T16:16:27;23.80;90.90
3262;DHT22;1643;47.746;9.000;2022-09-09T16:18:55;23.80;90.90
3262;DHT22;1643;47.746;9.000;2022-09-09T16:21:22;23.60;90.90
3262;DHT22;1643;47.746;9.000;2022-09-09T16:23:50;23.50;91.00
3262;DHT22;1643;47.746;9.000;2022-09-09T16:26:17;23.40;91.40
3262;DHT22;1643;47.746;9.000;2022-09-09T16:28:43;23.20;91.90
3262;DHT22;1643;47.746;9.000;2022-09-09T16:31:11;23.30;92.00
3262;DHT22;1643;47.746;9.000;2022-09-09T16:33:39;23.30;92.10
3262;DHT22;1643;47.746;9.000;2022-09-09T16:36:09;23.40;92.50
3262;DHT22;1643;47.746;9.000;2022-09-09T16:38:36;23.30;92.40
3262;DHT22;1643;47.746;9.000;2022-09-09T16:41:04;23.10;92.70
3262;DHT22;1643;47.746;9.000;2022-09-09T16:43:31;23.00;92.60
3262;DHT22;1643;47.746;9.000;2022-09-09T16:45:57;22.80;92.70
3262;DHT22;1643;47.746;9.000;2022-09-09T16:48:23;22.70;93.10
3262;DHT22;1643;47.746;9.000;2022-09-09T16:50:48;22.60;93.40
3262;DHT22;1643;47.746;9.000;2022-09-09T16:53:14;22.50;93.60
3262;DHT22;1643;47.746;9.000;2022-09-09T16:55:41;22.30;93.90
3262;DHT22;1643;47.746;9.000;2022-09-09T16:58:10;22.20;94.20
3262;DHT22;1643;47.746;9.000;2022-09-09T17:00:36;22.00;93.90
3262;DHT22;1643;47.746;9.000;2022-09-09T17:03:02;21.90;94.30
3262;DHT22;1643;47.746;9.000;2022-09-09T17:05:28;21.80;94.50
3262;DHT22;1643;47.746;9.000;2022-09-09T17:07:55;21.70;94.80
3262;DHT22;1643;47.746;9.000;2022-09-09T17:10:24;21.60;94.90
3262;DHT22;1643;47.746;9.000;2022-09-09T17:12:50;21.60;95.10
3262;DHT22;1643;47.746;9.000;2022-09-09T17:15:16;21.50;95.30
3262;DHT22;1643;47.746;9.000;2022-09-09T17:17:43;21.40;95.50
3262;DHT22;1643;47.746;9.000;2022-09-09T17:20:10;21.30;95.80
3262;DHT22;1643;47.746;9.000;2022-09-09T17:22:36;21.20;96.00
3262;DHT22;1643;47.746;9.000;2022-09-09T17:25:02;21.30;96.00
3262;DHT22;1643;47.746;9.000;2022-09-09T17:27:28;21.20;96.10
3262;DHT22;1643;47.746;9.000;2022-09-09T17:29:57;21.00;96.20
3262;DHT22;1643;47.746;9.000;2022-09-09T17:32:22;21.00;96.40
3262;DHT22;1643;47.746;9.000;2022-09-09T17:34:48;20.90;96.70
3262;DHT22;1643;47.746;9.000;2022-09-09T17:37:14;20.80;97.10
3262;DHT22;1643;47.746;9.000;2022-09-09T17:39:39;20.70;97.20
3262;DHT22;1643;47.746;9.000;2022-09-09T17:42:05;20.70;97.50
3262;DHT22;1643;47.746;9.000;2022-09-09T17:44:33;20.70;97.70
3262;DHT22;1643;47.746;9.000;2022-09-09T17:46:58;20.80;98.00
3262;DHT22;1643;47.746;9.000;2022-09-09T17:49:25;20.90;98.10
3262;DHT22;1643;47.746;9.000;2022-09-09T17:51:51;21.00;98.10
3262;DHT22;1643;47.746;9.000;2022-09-09T17:54:19;21.00;98.20
3262;DHT22;1643;47.746;9.000;2022-09-09T17:56:46;21.00;98.30
3262;DHT22;1643;47.746;9.000;2022-09-09T17:59:13;20.90;98.30
3262;DHT22;1643;47.746;9.000;2022-09-09T18:01:42;20.70;98.50
3262;DHT22;1643;47.746;9.000;2022-09-09T18:04:09;20.70;98.20
3262;DHT22;1643;47.746;9.000;2022-09-09T18:06:47;20.50;98.50
3262;DHT22;1643;47.746;9.000;2022-09-09T18:09:24;20.20;99.40
3262;DHT22;1643;47.746;9.000;2022-09-09T18:11:53;19.80;99.80
3262;DHT22;1643;47.746;9.000;2022-09-09T18:14:25;19.70;99.40
3262;DHT22;1643;47.746;9.000;2022-09-09T18:16:52;19.60;99.80
3262;DHT22;1643;47.746;9.000;2022-09-09T18:19:20;19.50;99.90
3262;DHT22;1643;47.746;9.000;2022-09-09T18:21:46;19.30;99.90
3262;DHT22;1643;47.746;9.000;2022-09-09T18:24:13;19.20;99.90
3262;DHT22;1643;47.746;9.000;2022-09-09T18:26:41;19.20;99.90
3262;DHT22;1643;47.746;9.000;2022-09-09T18:29:12;19.30;99.90
3262;DHT22;1643;47.746;9.000;2022-09-09T18:31:39;19.30;99.90
3262;DHT22;1643;47.746;9.000;2022-09-09T18:34:08;19.30;99.90